sensor_id;sensor_type;location;lat;lon;timestamp;P1;durP1;ratioP1;P2;durP2;ratioP2
28910;SDS011;16028;42.642;23.310;2023-04-24T00:00:57;15.50;;;9.77;;
28910;SDS011;16028;42.642;23.310;2023-04-24T00:03:26;13.70;;;9.23;;
28910;SDS011;16028;42.642;23.310;2023-04-24T00:05:53;14.18;;;9.70;;
28910;SDS011;16028;42.642;23.310;2023-04-24T00:08:21;19.30;;;8.77;;
28910;SDS011;16028;42.642;23.310;2023-04-24T00:10:48;11.35;;;9.00;;
28910;SDS011;16028;42.642;23.310;2023-04-24T00:13:17;13.90;;;9.27;;
28910;SDS011;16028;42.642;23.310;2023-04-24T00:15:43;14.63;;;8.82;;
28910;SDS011;16028;42.642;23.310;2023-04-24T00:18:10;16.08;;;10.07;;
28910;SDS011;16028;42.642;23.310;2023-04-24T00:20:37;13.20;;;8.98;;
28910;SDS011;16028;42.642;23.310;2023-04-24T00:23:04;14.55;;;9.43;;
28910;SDS011;16028;42.642;23.310;2023-04-24T00:25:32;13.27;;;9.18;;
28910;SDS011;16028;42.642;23.310;2023-04-24T00:27:59;12.38;;;9.35;;
28910;SDS011;16028;42.642;23.310;2023-04-24T00:30:26;14.32;;;9.32;;
28910;SDS011;16028;42.642;23.310;2023-04-24T00:32:53;11.27;;;8.38;;
28910;SDS011;16028;42.642;23.310;2023-04-24T00:35:19;17.52;;;9.27;;
28910;SDS011;16028;42.642;23.310;2023-04-24T00:37:46;15.30;;;9.85;;
28910;SDS011;16028;42.642;23.310;2023-04-24T00:40:13;13.05;;;9.38;;
28910;SDS011;16028;42.642;23.310;2023-04-24T00:42:41;17.95;;;9.45;;
28910;SDS011;16028;42.642;23.310;2023-04-24T00:45:09;12.30;;;8.45;;
28910;SDS011;16028;42.642;23.310;2023-04-24T00:47:36;14.45;;;8.98;;
28910;SDS011;16028;42.642;23.310;2023-04-24T00:50:03;12.88;;;8.82;;
28910;SDS011;16028;42.642;23.310;2023-04-24T00:52:31;16.30;;;8.07;;
28910;SDS011;16028;42.642;23.310;2023-04-24T00:54:58;11.10;;;8.43;;
28910;SDS011;16028;42.642;23.310;2023-04-24T00:57:25;14.27;;;8.50;;
28910;SDS011;16028;42.642;23.310;2023-04-24T00:59:54;10.57;;;7.93;;
28910;SDS011;16028;42.642;23.310;2023-04-24T01:02:21;12.65;;;8.32;;
28910;SDS011;16028;42.642;23.310;2023-04-24T01:04:49;14.20;;;7.80;;
28910;SDS011;16028;42.642;23.310;2023-04-24T01:07:17;12.43;;;7.85;;
28910;SDS011;16028;42.642;23.310;2023-04-24T01:09:46;10.65;;;8.20;;
28910;SDS011;16028;42.642;23.310;2023-04-24T01:12:15;12.60;;;7.93;;
28910;SDS011;16028;42.642;23.310;2023-04-24T01:14:43;10.25;;;8.50;;
28910;SDS011;16028;42.642;23.310;2023-04-24T01:17:11;18.60;;;9.70;;
28910;SDS011;16028;42.642;23.310;2023-04-24T01:19:38;14.15;;;9.23;;
28910;SDS011;16028;42.642;23.310;2023-04-24T01:22:11;11.85;;;8.18;;
28910;SDS011;16028;42.642;23.310;2023-04-24T01:24:39;13.65;;;8.55;;
28910;SDS011;16028;42.642;23.310;2023-04-24T01:27:07;14.90;;;10.00;;
28910;SDS011;16028;42.642;23.310;2023-04-24T01:29:35;13.38;;;10.02;;
28910;SDS011;16028;42.642;23.310;2023-04-24T01:32:02;17.50;;;10.77;;
28910;SDS011;16028;42.642;23.310;2023-04-24T01:34:30;11.80;;;9.02;;
28910;SDS011;16028;42.642;23.310;2023-04-24T01:36:57;15.32;;;10.68;;
28910;SDS011;16028;42.642;23.310;2023-04-24T01:39:26;14.15;;;10.40;;
28910;SDS011;16028;42.642;23.310;2023-04-24T01:41:53;18.77;;;11.85;;
28910;SDS011;16028;42.642;23.310;2023-04-24T01:44:20;16.45;;;11.20;;
28910;SDS011;16028;42.642;23.310;2023-04-24T01:46:47;20.98;;;11.57;;
28910;SDS011;16028;42.642;23.310;2023-04-24T01:49:14;14.52;;;10.98;;
28910;SDS011;16028;42.642;23.310;2023-04-24T01:51:41;16.20;;;12.02;;
28910;SDS011;16028;42.642;23.310;2023-04-24T01:54:07;18.95;;;11.80;;
28910;SDS011;16028;42.642;23.310;2023-04-24T01:56:36;15.90;;;11.02;;
28910;SDS011;16028;42.642;23.310;2023-04-24T01:59:05;16.00;;;11.70;;
28910;SDS011;16028;42.642;23.310;2023-04-24T02:01:34;14.95;;;10.82;;
28910;SDS011;16028;42.642;23.310;2023-04-24T02:04:02;15.55;;;12.15;;
28910;SDS011;16028;42.642;23.310;2023-04-24T02:06:28;14.27;;;10.95;;
28910;SDS011;16028;42.642;23.310;2023-04-24T02:08:56;16.42;;;10.63;;
28910;SDS011;16028;42.642;23.310;2023-04-24T02:11:24;15.13;;;10.45;;
28910;SDS011;16028;42.642;23.310;2023-04-24T02:13:52;14.20;;;11.05;;
28910;SDS011;16028;42.642;23.310;2023-04-24T02:16:19;15.40;;;11.20;;
28910;SDS011;16028;42.642;23.310;2023-04-24T02:18:46;15.52;;;10.85;;
28910;SDS011;16028;42.642;23.310;2023-04-24T02:21:12;14.95;;;10.10;;
28910;SDS011;16028;42.642;23.310;2023-04-24T02:23:39;14.80;;;10.98;;
28910;SDS011;16028;42.642;23.310;2023-04-24T02:26:06;15.63;;;11.05;;
28910;SDS011;16028;42.642;23.310;2023-04-24T02:28:33;17.65;;;10.63;;
28910;SDS011;16028;42.642;23.310;2023-04-24T02:31:03;18.92;;;11.68;;
28910;SDS011;16028;42.642;23.310;2023-04-24T02:33:30;15.65;;;10.45;;
28910;SDS011;16028;42.642;23.310;2023-04-24T02:35:57;14.55;;;10.07;;
28910;SDS011;16028;42.642;23.310;2023-04-24T02:38:24;13.93;;;9.77;;
28910;SDS011;16028;42.642;23.310;2023-04-24T02:40:51;13.23;;;9.05;;
28910;SDS011;16028;42.642;23.310;2023-04-24T02:43:18;12.13;;;9.40;;
28910;SDS011;16028;42.642;23.310;2023-04-24T02:45:45;18.95;;;10.43;;
28910;SDS011;16028;42.642;23.310;2023-04-24T02:48:13;15.15;;;9.48;;
28910;SDS011;16028;42.642;23.310;2023-04-24T02:50:40;17.15;;;10.05;;
28910;SDS011;16028;42.642;23.310;2023-04-24T02:53:06;15.65;;;10.20;;
28910;SDS011;16028;42.642;23.310;2023-04-24T02:55:33;13.63;;;9.32;;
28910;SDS011;16028;42.642;23.310;2023-04-24T02:58:00;14.48;;;9.05;;
28910;SDS011;16028;42.642;23.310;2023-04-24T03:00:28;17.85;;;9.48;;
28910;SDS011;16028;42.642;23.310;2023-04-24T03:02:55;14.88;;;9.00;;
28910;SDS011;16028;42.642;23.310;2023-04-24T03:05:23;12.23;;;8.98;;
28910;SDS011;16028;42.642;23.310;2023-04-24T03:07:50;16.02;;;9.30;;
28910;SDS011;16028;42.642;23.310;2023-04-24T03:10:18;13.52;;;9.60;;
28910;SDS011;16028;42.642;23.310;2023-04-24T03:12:45;15.10;;;9.88;;
28910;SDS011;16028;42.642;23.310;2023-04-24T03:15:12;15.38;;;9.18;;
28910;SDS011;16028;42.642;23.310;2023-04-24T03:17:38;12.68;;;9.65;;
28910;SDS011;16028;42.642;23.310;2023-04-24T03:20:06;11.63;;;9.25;;
28910;SDS011;16028;42.642;23.310;2023-04-24T03:22:35;13.27;;;8.95;;
28910;SDS011;16028;42.642;23.310;2023-04-24T03:25:04;14.60;;;9.48;;
28910;SDS011;16028;42.642;23.310;2023-04-24T03:27:33;15.25;;;9.38;;
28910;SDS011;16028;42.642;23.310;2023-04-24T03:30:00;13.95;;;9.55;;
28910;SDS011;16028;42.642;23.310;2023-04-24T03:32:27;14.70;;;9.45;;
28910;SDS011;16028;42.642;23.310;2023-04-24T03:34:53;13.48;;;8.55;;
28910;SDS011;16028;42.642;23.310;2023-04-24T03:37:20;15.60;;;8.90;;
28910;SDS011;16028;42.642;23.310;2023-04-24T03:39:48;16.30;;;9.43;;
28910;SDS011;16028;42.642;23.310;2023-04-24T03:42:15;12.52;;;9.23;;
28910;SDS011;16028;42.642;23.310;2023-04-24T03:44:42;12.38;;;9.65;;
28910;SDS011;16028;42.642;23.310;2023-04-24T03:47:08;11.68;;;8.82;;
28910;SDS011;16028;42.642;23.310;2023-04-24T03:49:35;14.90;;;8.88;;
28910;SDS011;16028;42.642;23.310;2023-04-24T03:52:02;13.27;;;9.25;;
28910;SDS011;16028;42.642;23.310;2023-04-24T03:54:29;13.27;;;8.88;;
28910;SDS011;16028;42.642;23.310;2023-04-24T03:56:57;13.55;;;9.25;;
28910;SDS011;16028;42.642;23.310;2023-04-24T03:59:23;13.45;;;8.68;;
28910;SDS011;16028;42.642;23.310;2023-04-24T04:01:50;12.35;;;8.70;;
28910;SDS011;16028;42.642;23.310;2023-04-24T04:04:17;13.57;;;9.05;;
28910;SDS011;16028;42.642;23.310;2023-04-24T04:06:44;10.98;;;8.25;;
28910;SDS011;16028;42.642;23.310;2023-04-24T04:09:11;13.63;;;8.77;;
28910;SDS011;16028;42.642;23.310;2023-04-24T04:11:38;11.65;;;9.02;;
28910;SDS011;16028;42.642;23.310;2023-04-24T04:14:07;12.77;;;7.97;;
28910;SDS011;16028;42.642;23.310;2023-04-24T04:16:33;12.73;;;8.88;;
28910;SDS011;16028;42.642;23.310;2023-04-24T04:19:01;11.18;;;8.43;;
28910;SDS011;16028;42.642;23.310;2023-04-24T04:21:28;13.45;;;8.68;;
28910;SDS011;16028;42.642;23.310;2023-04-24T04:23:55;13.10;;;8.93;;
28910;SDS011;16028;42.642;23.310;2023-04-24T04:26:22;13.35;;;8.85;;
28910;SDS011;16028;42.642;23.310;2023-04-24T04:28:50;20.10;;;9.05;;
28910;SDS011;16028;42.642;23.310;2023-04-24T04:31:18;10.75;;;8.80;;
28910;SDS011;16028;42.642;23.310;2023-04-24T04:33:46;11.45;;;8.40;;
28910;SDS011;16028;42.642;23.310;2023-04-24T04:36:12;13.90;;;8.95;;
28910;SDS011;16028;42.642;23.310;2023-04-24T04:38:39;13.73;;;8.57;;
28910;SDS011;16028;42.642;23.310;2023-04-24T04:41:08;13.90;;;8.73;;
28910;SDS011;16028;42.642;23.310;2023-04-24T04:43:34;15.43;;;9.10;;
28910;SDS011;16028;42.642;23.310;2023-04-24T04:46:01;16.15;;;8.82;;
28910;SDS011;16028;42.642;23.310;2023-04-24T04:48:30;16.63;;;9.05;;
28910;SDS011;16028;42.642;23.310;2023-04-24T04:50:57;11.52;;;9.20;;
28910;SDS011;16028;42.642;23.310;2023-04-24T04:53:24;18.33;;;9.25;;
28910;SDS011;16028;42.642;23.310;2023-04-24T04:55:51;21.40;;;9.65;;
28910;SDS011;16028;42.642;23.310;2023-04-24T04:58:18;15.88;;;9.43;;
28910;SDS011;16028;42.642;23.310;2023-04-24T05:00:45;13.82;;;9.13;;
28910;SDS011;16028;42.642;23.310;2023-04-24T05:03:11;17.23;;;9.63;;
28910;SDS011;16028;42.642;23.310;2023-04-24T05:05:39;17.90;;;9.32;;
28910;SDS011;16028;42.642;23.310;2023-04-24T05:08:06;15.65;;;9.48;;
28910;SDS011;16028;42.642;23.310;2023-04-24T05:10:33;12.60;;;8.55;;
28910;SDS011;16028;42.642;23.310;2023-04-24T05:13:02;15.10;;;10.00;;
28910;SDS011;16028;42.642;23.310;2023-04-24T05:15:28;17.13;;;9.10;;
28910;SDS011;16028;42.642;23.310;2023-04-24T05:17:55;24.30;;;9.18;;
28910;SDS011;16028;42.642;23.310;2023-04-24T05:20:22;15.13;;;8.60;;
28910;SDS011;16028;42.642;23.310;2023-04-24T05:22:50;12.52;;;9.73;;
28910;SDS011;16028;42.642;23.310;2023-04-24T05:25:17;13.48;;;8.73;;
28910;SDS011;16028;42.642;23.310;2023-04-24T05:27:44;12.65;;;9.50;;
28910;SDS011;16028;42.642;23.310;2023-04-24T05:30:11;17.00;;;10.32;;
28910;SDS011;16028;42.642;23.310;2023-04-24T05:32:39;18.33;;;9.38;;
28910;SDS011;16028;42.642;23.310;2023-04-24T05:35:06;14.90;;;9.57;;
28910;SDS011;16028;42.642;23.310;2023-04-24T05:37:33;24.63;;;9.30;;
28910;SDS011;16028;42.642;23.310;2023-04-24T05:40:01;21.92;;;10.43;;
28910;SDS011;16028;42.642;23.310;2023-04-24T05:42:33;20.42;;;9.43;;
28910;SDS011;16028;42.642;23.310;2023-04-24T05:44:59;14.90;;;9.52;;
28910;SDS011;16028;42.642;23.310;2023-04-24T05:47:26;15.35;;;9.85;;
28910;SDS011;16028;42.642;23.310;2023-04-24T05:49:53;15.48;;;9.15;;
28910;SDS011;16028;42.642;23.310;2023-04-24T05:52:20;15.95;;;10.27;;
28910;SDS011;16028;42.642;23.310;2023-04-24T05:54:46;18.45;;;11.95;;
28910;SDS011;16028;42.642;23.310;2023-04-24T05:57:18;21.27;;;10.10;;
28910;SDS011;16028;42.642;23.310;2023-04-24T05:59:45;16.00;;;9.60;;
28910;SDS011;16028;42.642;23.310;2023-04-24T06:02:11;15.68;;;9.70;;
28910;SDS011;16028;42.642;23.310;2023-04-24T06:04:38;16.83;;;10.32;;
28910;SDS011;16028;42.642;23.310;2023-04-24T06:07:05;23.25;;;13.80;;
28910;SDS011;16028;42.642;23.310;2023-04-24T06:09:32;16.50;;;10.65;;
28910;SDS011;16028;42.642;23.310;2023-04-24T06:11:58;18.65;;;10.27;;
28910;SDS011;16028;42.642;23.310;2023-04-24T06:14:26;20.80;;;10.10;;
28910;SDS011;16028;42.642;23.310;2023-04-24T06:16:53;13.85;;;9.30;;
28910;SDS011;16028;42.642;23.310;2023-04-24T06:19:20;16.40;;;8.95;;
28910;SDS011;16028;42.642;23.310;2023-04-24T06:21:47;16.52;;;8.85;;
28910;SDS011;16028;42.642;23.310;2023-04-24T06:24:13;25.33;;;16.42;;
28910;SDS011;16028;42.642;23.310;2023-04-24T06:26:41;25.67;;;13.85;;
28910;SDS011;16028;42.642;23.310;2023-04-24T06:29:08;22.40;;;11.82;;
28910;SDS011;16028;42.642;23.310;2023-04-24T06:31:36;18.23;;;9.13;;
28910;SDS011;16028;42.642;23.310;2023-04-24T06:34:03;12.70;;;8.45;;
28910;SDS011;16028;42.642;23.310;2023-04-24T06:36:30;13.82;;;9.25;;
28910;SDS011;16028;42.642;23.310;2023-04-24T06:38:59;13.55;;;8.90;;
28910;SDS011;16028;42.642;23.310;2023-04-24T06:41:26;18.20;;;8.55;;
28910;SDS011;16028;42.642;23.310;2023-04-24T06:43:53;12.93;;;7.55;;
28910;SDS011;16028;42.642;23.310;2023-04-24T06:46:19;15.88;;;8.25;;
28910;SDS011;16028;42.642;23.310;2023-04-24T06:48:48;16.95;;;7.97;;
28910;SDS011;16028;42.642;23.310;2023-04-24T06:51:15;15.48;;;8.25;;
28910;SDS011;16028;42.642;23.310;2023-04-24T06:53:43;14.18;;;7.75;;
28910;SDS011;16028;42.642;23.310;2023-04-24T06:56:10;15.73;;;8.38;;
28910;SDS011;16028;42.642;23.310;2023-04-24T06:58:37;15.88;;;7.40;;
28910;SDS011;16028;42.642;23.310;2023-04-24T07:01:04;13.40;;;7.72;;
28910;SDS011;16028;42.642;23.310;2023-04-24T07:03:31;13.30;;;7.80;;
28910;SDS011;16028;42.642;23.310;2023-04-24T07:05:59;11.02;;;7.05;;
28910;SDS011;16028;42.642;23.310;2023-04-24T07:08:26;11.13;;;6.78;;
28910;SDS011;16028;42.642;23.310;2023-04-24T07:10:53;10.65;;;7.30;;
28910;SDS011;16028;42.642;23.310;2023-04-24T07:13:21;13.05;;;7.45;;
28910;SDS011;16028;42.642;23.310;2023-04-24T07:15:48;13.48;;;7.32;;
28910;SDS011;16028;42.642;23.310;2023-04-24T07:18:17;11.80;;;7.47;;
28910;SDS011;16028;42.642;23.310;2023-04-24T07:20:44;16.40;;;8.73;;
28910;SDS011;16028;42.642;23.310;2023-04-24T07:23:12;12.38;;;7.00;;
28910;SDS011;16028;42.642;23.310;2023-04-24T07:25:39;13.65;;;7.35;;
28910;SDS011;16028;42.642;23.310;2023-04-24T07:28:06;9.88;;;6.45;;
28910;SDS011;16028;42.642;23.310;2023-04-24T07:30:32;13.75;;;7.35;;
28910;SDS011;16028;42.642;23.310;2023-04-24T07:32:59;11.32;;;7.07;;
28910;SDS011;16028;42.642;23.310;2023-04-24T07:35:26;11.48;;;6.07;;
28910;SDS011;16028;42.642;23.310;2023-04-24T07:37:53;14.88;;;6.85;;
28910;SDS011;16028;42.642;23.310;2023-04-24T07:40:22;14.00;;;6.28;;
28910;SDS011;16028;42.642;23.310;2023-04-24T07:42:48;8.55;;;5.95;;
28910;SDS011;16028;42.642;23.310;2023-04-24T07:45:15;7.45;;;5.90;;
28910;SDS011;16028;42.642;23.310;2023-04-24T07:47:42;16.58;;;7.72;;
28910;SDS011;16028;42.642;23.310;2023-04-24T07:50:10;10.90;;;7.38;;
28910;SDS011;16028;42.642;23.310;2023-04-24T07:52:37;12.05;;;7.22;;
28910;SDS011;16028;42.642;23.310;2023-04-24T07:55:04;19.10;;;7.82;;
28910;SDS011;16028;42.642;23.310;2023-04-24T07:57:33;14.25;;;7.80;;
28910;SDS011;16028;42.642;23.310;2023-04-24T08:00:00;13.05;;;7.38;;
28910;SDS011;16028;42.642;23.310;2023-04-24T08:02:27;13.18;;;7.50;;
28910;SDS011;16028;42.642;23.310;2023-04-24T08:04:54;12.65;;;8.43;;
28910;SDS011;16028;42.642;23.310;2023-04-24T08:07:21;11.00;;;6.85;;
28910;SDS011;16028;42.642;23.310;2023-04-24T08:09:50;10.43;;;6.90;;
28910;SDS011;16028;42.642;23.310;2023-04-24T08:12:17;13.10;;;7.32;;
28910;SDS011;16028;42.642;23.310;2023-04-24T08:14:45;11.90;;;6.95;;
28910;SDS011;16028;42.642;23.310;2023-04-24T08:17:11;8.98;;;6.78;;
28910;SDS011;16028;42.642;23.310;2023-04-24T08:19:39;8.70;;;6.75;;
28910;SDS011;16028;42.642;23.310;2023-04-24T08:22:08;15.75;;;7.75;;
28910;SDS011;16028;42.642;23.310;2023-04-24T08:24:35;13.18;;;7.63;;
28910;SDS011;16028;42.642;23.310;2023-04-24T08:27:01;15.80;;;7.15;;
28910;SDS011;16028;42.642;23.310;2023-04-24T08:29:28;28.73;;;15.70;;
28910;SDS011;16028;42.642;23.310;2023-04-24T08:31:56;13.50;;;7.82;;
28910;SDS011;16028;42.642;23.310;2023-04-24T08:34:23;53.95;;;21.15;;
28910;SDS011;16028;42.642;23.310;2023-04-24T08:36:50;31.42;;;12.85;;
28910;SDS011;16028;42.642;23.310;2023-04-24T08:39:17;13.50;;;8.15;;
28910;SDS011;16028;42.642;23.310;2023-04-24T08:41:44;17.40;;;7.82;;
28910;SDS011;16028;42.642;23.310;2023-04-24T08:44:11;16.05;;;7.18;;
28910;SDS011;16028;42.642;23.310;2023-04-24T08:46:40;27.33;;;9.32;;
28910;SDS011;16028;42.642;23.310;2023-04-24T08:49:11;9.55;;;7.70;;
28910;SDS011;16028;42.642;23.310;2023-04-24T08:51:41;12.93;;;8.15;;
28910;SDS011;16028;42.642;23.310;2023-04-24T08:54:08;15.10;;;7.05;;
28910;SDS011;16028;42.642;23.310;2023-04-24T08:56:35;8.65;;;7.20;;
28910;SDS011;16028;42.642;23.310;2023-04-24T08:59:04;17.10;;;7.55;;
28910;SDS011;16028;42.642;23.310;2023-04-24T09:01:32;12.65;;;7.57;;
28910;SDS011;16028;42.642;23.310;2023-04-24T09:04:00;9.60;;;6.63;;
28910;SDS011;16028;42.642;23.310;2023-04-24T09:06:30;11.38;;;7.60;;
28910;SDS011;16028;42.642;23.310;2023-04-24T09:08:58;9.75;;;7.13;;
28910;SDS011;16028;42.642;23.310;2023-04-24T09:11:27;11.18;;;7.32;;
28910;SDS011;16028;42.642;23.310;2023-04-24T09:13:54;10.13;;;6.90;;
28910;SDS011;16028;42.642;23.310;2023-04-24T09:16:21;21.42;;;13.45;;
28910;SDS011;16028;42.642;23.310;2023-04-24T09:18:49;14.25;;;8.32;;
28910;SDS011;16028;42.642;23.310;2023-04-24T09:21:16;10.55;;;7.47;;
28910;SDS011;16028;42.642;23.310;2023-04-24T09:23:44;13.35;;;7.10;;
28910;SDS011;16028;42.642;23.310;2023-04-24T09:26:11;13.30;;;7.85;;
28910;SDS011;16028;42.642;23.310;2023-04-24T09:28:40;9.73;;;7.38;;
28910;SDS011;16028;42.642;23.310;2023-04-24T09:31:07;11.52;;;7.22;;
28910;SDS011;16028;42.642;23.310;2023-04-24T09:33:35;8.75;;;6.50;;
28910;SDS011;16028;42.642;23.310;2023-04-24T09:36:02;17.55;;;7.70;;
28910;SDS011;16028;42.642;23.310;2023-04-24T09:38:31;10.18;;;6.60;;
28910;SDS011;16028;42.642;23.310;2023-04-24T09:41:00;12.27;;;7.10;;
28910;SDS011;16028;42.642;23.310;2023-04-24T09:43:29;10.93;;;6.65;;
28910;SDS011;16028;42.642;23.310;2023-04-24T09:45:56;12.30;;;6.70;;
28910;SDS011;16028;42.642;23.310;2023-04-24T09:48:29;11.27;;;6.55;;
28910;SDS011;16028;42.642;23.310;2023-04-24T09:50:57;11.43;;;6.40;;
28910;SDS011;16028;42.642;23.310;2023-04-24T09:53:26;9.90;;;6.80;;
28910;SDS011;16028;42.642;23.310;2023-04-24T09:55:53;11.63;;;6.35;;
28910;SDS011;16028;42.642;23.310;2023-04-24T09:58:25;12.70;;;6.22;;
28910;SDS011;16028;42.642;23.310;2023-04-24T10:00:55;9.15;;;5.80;;
28910;SDS011;16028;42.642;23.310;2023-04-24T10:03:23;8.73;;;6.28;;
28910;SDS011;16028;42.642;23.310;2023-04-24T10:05:52;9.38;;;6.15;;
28910;SDS011;16028;42.642;23.310;2023-04-24T10:08:20;12.00;;;6.25;;
28910;SDS011;16028;42.642;23.310;2023-04-24T10:10:47;10.50;;;6.07;;
28910;SDS011;16028;42.642;23.310;2023-04-24T10:13:14;8.02;;;5.82;;
28910;SDS011;16028;42.642;23.310;2023-04-24T10:15:42;14.10;;;6.10;;
28910;SDS011;16028;42.642;23.310;2023-04-24T10:18:10;8.35;;;6.22;;
28910;SDS011;16028;42.642;23.310;2023-04-24T10:20:39;9.25;;;5.82;;
28910;SDS011;16028;42.642;23.310;2023-04-24T10:23:06;10.35;;;5.88;;
28910;SDS011;16028;42.642;23.310;2023-04-24T10:25:34;9.88;;;5.57;;
28910;SDS011;16028;42.642;23.310;2023-04-24T10:28:02;11.13;;;5.47;;
28910;SDS011;16028;42.642;23.310;2023-04-24T10:30:30;9.13;;;5.55;;
28910;SDS011;16028;42.642;23.310;2023-04-24T10:33:01;7.75;;;5.15;;
28910;SDS011;16028;42.642;23.310;2023-04-24T10:35:33;9.70;;;5.65;;
28910;SDS011;16028;42.642;23.310;2023-04-24T10:38:05;6.93;;;5.28;;
28910;SDS011;16028;42.642;23.310;2023-04-24T10:40:35;7.00;;;5.05;;
28910;SDS011;16028;42.642;23.310;2023-04-24T10:43:03;15.40;;;9.80;;
28910;SDS011;16028;42.642;23.310;2023-04-24T10:45:31;7.43;;;4.63;;
28910;SDS011;16028;42.642;23.310;2023-04-24T10:47:59;12.00;;;5.03;;
28910;SDS011;16028;42.642;23.310;2023-04-24T10:50:29;7.95;;;5.07;;
28910;SDS011;16028;42.642;23.310;2023-04-24T10:53:12;7.25;;;4.72;;
28910;SDS011;16028;42.642;23.310;2023-04-24T10:55:43;13.07;;;5.28;;
28910;SDS011;16028;42.642;23.310;2023-04-24T10:58:11;7.47;;;4.80;;
28910;SDS011;16028;42.642;23.310;2023-04-24T11:00:40;10.48;;;5.03;;
28910;SDS011;16028;42.642;23.310;2023-04-24T11:03:13;7.05;;;4.13;;
28910;SDS011;16028;42.642;23.310;2023-04-24T11:05:52;8.07;;;4.32;;
28910;SDS011;16028;42.642;23.310;2023-04-24T11:08:23;10.40;;;4.50;;
28910;SDS011;16028;42.642;23.310;2023-04-24T11:11:02;6.45;;;4.22;;
28910;SDS011;16028;42.642;23.310;2023-04-24T11:16:34;5.05;;;4.25;;
28910;SDS011;16028;42.642;23.310;2023-04-24T11:19:04;7.68;;;4.18;;
28910;SDS011;16028;42.642;23.310;2023-04-24T11:21:40;7.43;;;4.40;;
28910;SDS011;16028;42.642;23.310;2023-04-24T11:24:27;6.20;;;4.30;;
28910;SDS011;16028;42.642;23.310;2023-04-24T11:26:56;9.35;;;4.32;;
28910;SDS011;16028;42.642;23.310;2023-04-24T11:29:42;8.90;;;3.88;;
28910;SDS011;16028;42.642;23.310;2023-04-24T11:32:17;5.95;;;2.90;;
28910;SDS011;16028;42.642;23.310;2023-04-24T11:34:46;4.40;;;3.22;;
28910;SDS011;16028;42.642;23.310;2023-04-24T11:37:15;3.63;;;3.28;;
28910;SDS011;16028;42.642;23.310;2023-04-24T11:39:42;4.60;;;3.33;;
28910;SDS011;16028;42.642;23.310;2023-04-24T11:42:09;3.97;;;3.58;;
28910;SDS011;16028;42.642;23.310;2023-04-24T11:44:36;4.38;;;3.97;;
28910;SDS011;16028;42.642;23.310;2023-04-24T11:47:03;3.95;;;3.55;;
28910;SDS011;16028;42.642;23.310;2023-04-24T11:49:30;7.88;;;5.20;;
28910;SDS011;16028;42.642;23.310;2023-04-24T11:51:57;8.65;;;5.55;;
28910;SDS011;16028;42.642;23.310;2023-04-24T11:54:27;8.93;;;6.20;;
28910;SDS011;16028;42.642;23.310;2023-04-24T11:56:55;8.55;;;5.97;;
28910;SDS011;16028;42.642;23.310;2023-04-24T11:59:22;6.40;;;4.63;;
28910;SDS011;16028;42.642;23.310;2023-04-24T12:01:49;7.82;;;6.05;;
28910;SDS011;16028;42.642;23.310;2023-04-24T12:04:16;9.43;;;6.03;;
28910;SDS011;16028;42.642;23.310;2023-04-24T12:09:27;6.60;;;5.47;;
28910;SDS011;16028;42.642;23.310;2023-04-24T12:11:55;9.75;;;5.93;;
28910;SDS011;16028;42.642;23.310;2023-04-24T12:14:23;16.08;;;9.52;;
28910;SDS011;16028;42.642;23.310;2023-04-24T12:16:50;9.27;;;4.53;;
28910;SDS011;16028;42.642;23.310;2023-04-24T12:19:18;8.15;;;4.60;;
28910;SDS011;16028;42.642;23.310;2023-04-24T12:21:58;3.42;;;3.13;;
28910;SDS011;16028;42.642;23.310;2023-04-24T12:24:26;3.45;;;3.15;;
28910;SDS011;16028;42.642;23.310;2023-04-24T12:26:54;3.25;;;2.95;;
28910;SDS011;16028;42.642;23.310;2023-04-24T12:29:21;3.72;;;3.30;;
28910;SDS011;16028;42.642;23.310;2023-04-24T12:31:49;7.68;;;4.07;;
28910;SDS011;16028;42.642;23.310;2023-04-24T12:34:19;6.90;;;4.53;;
28910;SDS011;16028;42.642;23.310;2023-04-24T12:36:46;6.32;;;4.00;;
28910;SDS011;16028;42.642;23.310;2023-04-24T12:39:16;5.03;;;4.28;;
28910;SDS011;16028;42.642;23.310;2023-04-24T12:41:55;5.60;;;5.07;;
28910;SDS011;16028;42.642;23.310;2023-04-24T12:44:29;6.15;;;4.63;;
28910;SDS011;16028;42.642;23.310;2023-04-24T12:49:24;5.65;;;4.55;;
28910;SDS011;16028;42.642;23.310;2023-04-24T12:51:51;5.68;;;4.78;;
28910;SDS011;16028;42.642;23.310;2023-04-24T12:54:18;7.45;;;4.45;;
28910;SDS011;16028;42.642;23.310;2023-04-24T12:56:44;5.00;;;4.13;;
28910;SDS011;16028;42.642;23.310;2023-04-24T12:59:13;5.90;;;4.43;;
28910;SDS011;16028;42.642;23.310;2023-04-24T13:01:40;6.55;;;4.05;;
28910;SDS011;16028;42.642;23.310;2023-04-24T13:04:07;8.68;;;4.43;;
28910;SDS011;16028;42.642;23.310;2023-04-24T13:06:34;5.65;;;3.38;;
28910;SDS011;16028;42.642;23.310;2023-04-24T13:09:01;6.63;;;4.30;;
28910;SDS011;16028;42.642;23.310;2023-04-24T13:11:28;5.50;;;4.32;;
28910;SDS011;16028;42.642;23.310;2023-04-24T13:13:55;4.53;;;3.50;;
28910;SDS011;16028;42.642;23.310;2023-04-24T13:16:23;4.32;;;3.92;;
28910;SDS011;16028;42.642;23.310;2023-04-24T13:18:50;4.85;;;4.00;;
28910;SDS011;16028;42.642;23.310;2023-04-24T13:21:17;4.35;;;3.90;;
28910;SDS011;16028;42.642;23.310;2023-04-24T13:23:44;8.48;;;4.45;;
28910;SDS011;16028;42.642;23.310;2023-04-24T13:26:10;5.93;;;4.45;;
28910;SDS011;16028;42.642;23.310;2023-04-24T13:28:37;6.13;;;4.80;;
28910;SDS011;16028;42.642;23.310;2023-04-24T13:31:04;8.48;;;5.85;;
28910;SDS011;16028;42.642;23.310;2023-04-24T13:33:32;7.35;;;4.35;;
28910;SDS011;16028;42.642;23.310;2023-04-24T13:35:59;5.85;;;4.40;;
28910;SDS011;16028;42.642;23.310;2023-04-24T13:38:26;5.75;;;3.83;;
28910;SDS011;16028;42.642;23.310;2023-04-24T13:40:53;5.28;;;4.35;;
28910;SDS011;16028;42.642;23.310;2023-04-24T13:43:20;5.18;;;4.22;;
28910;SDS011;16028;42.642;23.310;2023-04-24T13:45:47;4.50;;;3.90;;
28910;SDS011;16028;42.642;23.310;2023-04-24T13:48:14;5.93;;;4.65;;
28910;SDS011;16028;42.642;23.310;2023-04-24T13:50:42;7.40;;;4.35;;
28910;SDS011;16028;42.642;23.310;2023-04-24T13:53:10;7.22;;;4.60;;
28910;SDS011;16028;42.642;23.310;2023-04-24T13:55:37;7.03;;;3.97;;
28910;SDS011;16028;42.642;23.310;2023-04-24T13:58:04;6.03;;;4.80;;
28910;SDS011;16028;42.642;23.310;2023-04-24T14:00:31;8.73;;;5.10;;
28910;SDS011;16028;42.642;23.310;2023-04-24T14:02:58;10.10;;;3.95;;
28910;SDS011;16028;42.642;23.310;2023-04-24T14:05:25;8.68;;;4.38;;
28910;SDS011;16028;42.642;23.310;2023-04-24T14:07:54;13.45;;;4.80;;
28910;SDS011;16028;42.642;23.310;2023-04-24T14:10:20;6.45;;;3.90;;
28910;SDS011;16028;42.642;23.310;2023-04-24T14:12:47;6.03;;;4.38;;
28910;SDS011;16028;42.642;23.310;2023-04-24T14:15:14;7.57;;;4.03;;
28910;SDS011;16028;42.642;23.310;2023-04-24T14:17:41;3.65;;;3.33;;
28910;SDS011;16028;42.642;23.310;2023-04-24T14:20:12;4.32;;;3.78;;
28910;SDS011;16028;42.642;23.310;2023-04-24T14:22:39;5.22;;;3.95;;
28910;SDS011;16028;42.642;23.310;2023-04-24T14:25:08;7.90;;;3.60;;
28910;SDS011;16028;42.642;23.310;2023-04-24T14:27:35;5.88;;;3.70;;
28910;SDS011;16028;42.642;23.310;2023-04-24T14:30:02;8.93;;;3.97;;
28910;SDS011;16028;42.642;23.310;2023-04-24T14:32:31;8.25;;;4.38;;
28910;SDS011;16028;42.642;23.310;2023-04-24T14:34:57;4.55;;;3.55;;